Terminal Aerodrome Forecast
Issued by NWS Sterling, VA

Current Version | Previous Version | Graphics & Text | Print | Product List | Glossary On
Versions: 1 2 3 4 5 6 7 8 9 10 11 12 13 14 15 16 17 18 19 20 21
656
FTUS41 KLWX 211730
TAFIAD
TAF
KIAD 211730Z 2118/2224 27006KT P6SM SCT070
     FM212100 25007KT P6SM BKN070
     FM220200 24004KT P6SM SCT080
     FM221100 31004KT P6SM SCT250
     FM222000 24005KT P6SM BKN200=

USA.gov is the U.S. government's official web portal to all federal, state and local government web resources and services.